メインページ
METAR-TAF:

METAR-TAF

空港 :

シカゴ, イリノイ州, アメリカ合衆国

シカゴ・オヘア国際空港

緯度: 41-58-47N, 経度: 087-54-16W, 海抜: 203m

現時点の気象観測

当レポートは48分前の09:51(UTC)に作成
北西の風 13kt
気温 1°C
湿度 59%
気圧 1013 hPa
視程: 16.1km
高度3100ftの曇り

METAR: KORD 190951Z 31013KT 10SM OVC031 01/M06 A2991 RMK AO2 SLP134 T00061056

時間: 04:39 (10:39 UTC)

予報

当レポートは1時間39分前の09:00(UTC)に作成
予報は19日の 09時(UTC)から 20日の 12時(UTC)まで有効
北西の風 12kt、最大18ktの突風を伴う
視程: 10km
高度3000ftの曇り
19日の 1500時(UTC)から
西/北西の風 12kt、最大18ktの突風を伴う
視程: 10km
高度20000ftの雲は散在している
19日の 2300時(UTC)から
西/南西の風 8kt
視程: 10km
高度20000ftの雲は散在している

TAF: KORD 190900Z 1909/2012 31012G18KT P6SM OVC030 FM191500 29012G18KT P6SM SCT200 FM192300 25008KT P6SM SCT200

4,000以上の空港の気象観測と天気予報(METAR報とTAF報)

利用可能な観測所は地図上に黄色い丸と赤い丸で示す。

丸の上にカーソルを重ねると観測所名を参照できる。

次にクリックすると気象観測と天気予報を参照できる。

マップの切り替え:黒色「×」印の緑ボタンをクリックして拡大、「-」印の緑ボタンをクリックして縮小、緑色の三角印をクリックして隣りの地図に切り替え


METAR-TAF: